sensor_id;sensor_type;location;lat;lon;timestamp;temperature;humidity
21540;DHT22;10931;52.164;5.518;2022-10-23T00:36:56;20.10;70.60
21540;DHT22;10931;52.164;5.518;2022-10-23T02:11:36;19.90;70.40
21540;DHT22;10931;52.164;5.518;2022-10-23T06:08:21;19.40;70.10
21540;DHT22;10931;52.164;5.518;2022-10-23T06:13:34;19.40;70.10
21540;DHT22;10931;52.164;5.518;2022-10-23T06:16:10;19.40;70.90
21540;DHT22;10931;52.164;5.518;2022-10-23T06:18:44;19.50;70.30
21540;DHT22;10931;52.164;5.518;2022-10-23T06:21:14;19.40;70.10
21540;DHT22;10931;52.164;5.518;2022-10-23T06:23:42;19.40;70.10
21540;DHT22;10931;52.164;5.518;2022-10-23T06:26:18;19.40;70.10
21540;DHT22;10931;52.164;5.518;2022-10-23T06:28:47;19.40;70.10
21540;DHT22;10931;52.164;5.518;2022-10-23T06:31:14;19.40;70.10
21540;DHT22;10931;52.164;5.518;2022-10-23T06:33:54;19.40;70.10
21540;DHT22;10931;52.164;5.518;2022-10-23T06:36:22;19.40;70.20
21540;DHT22;10931;52.164;5.518;2022-10-23T06:38:56;19.40;70.10
21540;DHT22;10931;52.164;5.518;2022-10-23T06:41:21;19.40;70.10
21540;DHT22;10931;52.164;5.518;2022-10-23T06:46:44;19.40;70.10
21540;DHT22;10931;52.164;5.518;2022-10-23T06:49:16;19.40;70.10
21540;DHT22;10931;52.164;5.518;2022-10-23T06:52:02;19.40;70.10
21540;DHT22;10931;52.164;5.518;2022-10-23T06:54:35;19.40;70.10
21540;DHT22;10931;52.164;5.518;2022-10-23T06:57:04;19.40;70.10
21540;DHT22;10931;52.164;5.518;2022-10-23T06:59:52;19.30;70.00
21540;DHT22;10931;52.164;5.518;2022-10-23T07:02:27;19.40;70.10
21540;DHT22;10931;52.164;5.518;2022-10-23T07:07:33;19.40;70.10
21540;DHT22;10931;52.164;5.518;2022-10-23T07:10:13;19.40;70.10
21540;DHT22;10931;52.164;5.518;2022-10-23T07:13:26;19.40;70.10
21540;DHT22;10931;52.164;5.518;2022-10-23T07:15:52;19.30;70.00
21540;DHT22;10931;52.164;5.518;2022-10-23T07:18:36;19.30;70.00
21540;DHT22;10931;52.164;5.518;2022-10-23T07:24:02;19.30;70.00
21540;DHT22;10931;52.164;5.518;2022-10-23T07:26:54;19.30;70.00
21540;DHT22;10931;52.164;5.518;2022-10-23T07:29:33;19.30;70.00
21540;DHT22;10931;52.164;5.518;2022-10-23T07:36:02;19.30;70.00
21540;DHT22;10931;52.164;5.518;2022-10-23T07:39:05;19.30;70.00
21540;DHT22;10931;52.164;5.518;2022-10-23T07:41:47;19.30;70.10
21540;DHT22;10931;52.164;5.518;2022-10-23T07:44:17;19.30;70.80
21540;DHT22;10931;52.164;5.518;2022-10-23T07:46:50;19.30;70.10
21540;DHT22;10931;52.164;5.518;2022-10-23T07:49:48;19.30;70.00
21540;DHT22;10931;52.164;5.518;2022-10-23T07:52:42;19.30;70.00
21540;DHT22;10931;52.164;5.518;2022-10-23T07:55:16;19.30;70.00
21540;DHT22;10931;52.164;5.518;2022-10-23T07:58:05;19.30;70.00
21540;DHT22;10931;52.164;5.518;2022-10-23T08:03:39;19.30;70.00
21540;DHT22;10931;52.164;5.518;2022-10-23T08:06:38;19.30;70.00
21540;DHT22;10931;52.164;5.518;2022-10-23T08:09:19;19.30;70.00
21540;DHT22;10931;52.164;5.518;2022-10-23T08:23:10;19.30;70.00
21540;DHT22;10931;52.164;5.518;2022-10-23T08:26:03;19.20;70.00
21540;DHT22;10931;52.164;5.518;2022-10-23T08:50:31;19.20;70.00
21540;DHT22;10931;52.164;5.518;2022-10-23T08:53:24;19.20;70.00
21540;DHT22;10931;52.164;5.518;2022-10-23T08:56:27;19.20;70.10
21540;DHT22;10931;52.164;5.518;2022-10-23T08:59:05;19.20;70.00
21540;DHT22;10931;52.164;5.518;2022-10-23T09:02:19;19.20;70.00
21540;DHT22;10931;52.164;5.518;2022-10-23T09:04:56;19.20;70.00
21540;DHT22;10931;52.164;5.518;2022-10-23T09:10:55;19.20;70.00
21540;DHT22;10931;52.164;5.518;2022-10-23T09:16:53;19.20;70.00
21540;DHT22;10931;52.164;5.518;2022-10-23T09:23:33;19.20;70.10
21540;DHT22;10931;52.164;5.518;2022-10-23T09:26:17;19.20;70.00
21540;DHT22;10931;52.164;5.518;2022-10-23T09:32:58;19.20;70.10
21540;DHT22;10931;52.164;5.518;2022-10-23T09:41:43;19.20;70.10
21540;DHT22;10931;52.164;5.518;2022-10-23T09:44:30;19.20;70.10
21540;DHT22;10931;52.164;5.518;2022-10-23T09:55:54;19.20;70.10
21540;DHT22;10931;52.164;5.518;2022-10-23T10:30:22;19.20;70.20
21540;DHT22;10931;52.164;5.518;2022-10-23T10:32:57;19.20;70.20
21540;DHT22;10931;52.164;5.518;2022-10-23T10:35:43;19.20;70.20
21540;DHT22;10931;52.164;5.518;2022-10-23T10:53:27;19.20;70.20
21540;DHT22;10931;52.164;5.518;2022-10-23T10:56:39;19.20;70.20
21540;DHT22;10931;52.164;5.518;2022-10-23T10:59:50;19.20;70.20
21540;DHT22;10931;52.164;5.518;2022-10-23T11:02:44;19.20;70.20
21540;DHT22;10931;52.164;5.518;2022-10-23T11:05:43;19.20;70.20
21540;DHT22;10931;52.164;5.518;2022-10-23T11:08:37;19.20;70.20
21540;DHT22;10931;52.164;5.518;2022-10-23T11:17:40;19.20;70.20
21540;DHT22;10931;52.164;5.518;2022-10-23T11:29:50;19.20;70.70
21540;DHT22;10931;52.164;5.518;2022-10-23T11:41:35;19.20;70.20
21540;DHT22;10931;52.164;5.518;2022-10-23T11:47:42;19.20;70.20
21540;DHT22;10931;52.164;5.518;2022-10-23T12:21:18;19.20;70.20
21540;DHT22;10931;52.164;5.518;2022-10-23T12:24:11;19.30;70.30
21540;DHT22;10931;52.164;5.518;2022-10-23T12:30:02;19.30;70.30
21540;DHT22;10931;52.164;5.518;2022-10-23T12:33:09;19.30;70.30
21540;DHT22;10931;52.164;5.518;2022-10-23T12:39:30;19.30;70.30
21540;DHT22;10931;52.164;5.518;2022-10-23T12:42:32;19.30;70.30
21540;DHT22;10931;52.164;5.518;2022-10-23T13:10:41;19.30;70.20
21540;DHT22;10931;52.164;5.518;2022-10-23T13:13:31;19.30;70.30
21540;DHT22;10931;52.164;5.518;2022-10-23T13:22:29;19.30;70.30
21540;DHT22;10931;52.164;5.518;2022-10-23T13:28:30;19.40;70.40
21540;DHT22;10931;52.164;5.518;2022-10-23T13:33:38;19.40;70.40
21540;DHT22;10931;52.164;5.518;2022-10-23T13:36:21;19.40;70.50
21540;DHT22;10931;52.164;5.518;2022-10-23T13:41:25;19.40;70.50
21540;DHT22;10931;52.164;5.518;2022-10-23T13:43:51;19.40;70.60
21540;DHT22;10931;52.164;5.518;2022-10-23T13:46:20;19.40;70.50
21540;DHT22;10931;52.164;5.518;2022-10-23T13:49:03;19.40;70.60
21540;DHT22;10931;52.164;5.518;2022-10-23T13:51:31;19.40;70.60
21540;DHT22;10931;52.164;5.518;2022-10-23T13:54:00;19.50;70.70
21540;DHT22;10931;52.164;5.518;2022-10-23T13:56:31;19.40;70.60
21540;DHT22;10931;52.164;5.518;2022-10-23T14:02:23;19.50;70.70
21540;DHT22;10931;52.164;5.518;2022-10-23T14:05:08;19.50;70.70
21540;DHT22;10931;52.164;5.518;2022-10-23T14:07:44;19.50;70.70
21540;DHT22;10931;52.164;5.518;2022-10-23T14:10:10;19.50;70.70
21540;DHT22;10931;52.164;5.518;2022-10-23T14:12:45;19.50;70.70
21540;DHT22;10931;52.164;5.518;2022-10-23T14:15:13;19.50;70.80
21540;DHT22;10931;52.164;5.518;2022-10-23T14:17:43;19.50;70.90
21540;DHT22;10931;52.164;5.518;2022-10-23T14:20:09;19.60;70.90
21540;DHT22;10931;52.164;5.518;2022-10-23T14:22:35;19.60;71.00
21540;DHT22;10931;52.164;5.518;2022-10-23T14:25:03;19.60;70.90
21540;DHT22;10931;52.164;5.518;2022-10-23T14:27:36;19.60;71.00
21540;DHT22;10931;52.164;5.518;2022-10-23T14:30:03;19.60;71.00
21540;DHT22;10931;52.164;5.518;2022-10-23T14:32:29;19.60;71.00
21540;DHT22;10931;52.164;5.518;2022-10-23T14:34:57;19.60;71.10
21540;DHT22;10931;52.164;5.518;2022-10-23T14:37:40;19.60;71.10
21540;DHT22;10931;52.164;5.518;2022-10-23T14:40:08;19.60;71.20
21540;DHT22;10931;52.164;5.518;2022-10-23T14:42:44;19.60;71.20
21540;DHT22;10931;52.164;5.518;2022-10-23T14:45:13;19.70;71.30
21540;DHT22;10931;52.164;5.518;2022-10-23T14:48:28;19.70;71.30
21540;DHT22;10931;52.164;5.518;2022-10-23T14:51:30;19.70;71.30
21540;DHT22;10931;52.164;5.518;2022-10-23T14:54:29;19.70;71.30
21540;DHT22;10931;52.164;5.518;2022-10-23T14:57:09;19.70;71.30
21540;DHT22;10931;52.164;5.518;2022-10-23T14:59:47;19.70;71.40
21540;DHT22;10931;52.164;5.518;2022-10-23T15:02:39;19.80;71.50
21540;DHT22;10931;52.164;5.518;2022-10-23T15:05:07;19.70;71.40
21540;DHT22;10931;52.164;5.518;2022-10-23T15:07:54;19.80;71.50
21540;DHT22;10931;52.164;5.518;2022-10-23T15:10:35;19.80;71.50
21540;DHT22;10931;52.164;5.518;2022-10-23T15:13:23;19.80;71.50
21540;DHT22;10931;52.164;5.518;2022-10-23T15:16:08;19.80;71.60
21540;DHT22;10931;52.164;5.518;2022-10-23T15:18:57;19.80;71.70
21540;DHT22;10931;52.164;5.518;2022-10-23T15:21:25;19.80;71.70
21540;DHT22;10931;52.164;5.518;2022-10-23T15:24:11;19.90;71.80
21540;DHT22;10931;52.164;5.518;2022-10-23T15:26:42;19.90;71.80
21540;DHT22;10931;52.164;5.518;2022-10-23T15:29:18;19.90;71.80
21540;DHT22;10931;52.164;5.518;2022-10-23T15:32:19;19.90;71.80
21540;DHT22;10931;52.164;5.518;2022-10-23T15:35:17;19.90;71.80
21540;DHT22;10931;52.164;5.518;2022-10-23T15:37:56;19.90;71.80
21540;DHT22;10931;52.164;5.518;2022-10-23T15:40:22;20.00;71.90
21540;DHT22;10931;52.164;5.518;2022-10-23T15:42:50;20.00;72.00
21540;DHT22;10931;52.164;5.518;2022-10-23T15:45:32;20.00;71.90
21540;DHT22;10931;52.164;5.518;2022-10-23T15:48:08;20.00;72.00
21540;DHT22;10931;52.164;5.518;2022-10-23T15:50:46;20.00;72.00
21540;DHT22;10931;52.164;5.518;2022-10-23T15:53:14;20.00;72.00
21540;DHT22;10931;52.164;5.518;2022-10-23T15:56:02;20.00;72.00
21540;DHT22;10931;52.164;5.518;2022-10-23T15:58:48;20.00;72.00
21540;DHT22;10931;52.164;5.518;2022-10-23T16:01:19;20.00;72.00
21540;DHT22;10931;52.164;5.518;2022-10-23T16:03:55;20.10;72.00
21540;DHT22;10931;52.164;5.518;2022-10-23T16:06:23;20.10;72.00
21540;DHT22;10931;52.164;5.518;2022-10-23T16:08:58;20.10;72.00
21540;DHT22;10931;52.164;5.518;2022-10-23T16:11:29;20.10;72.00
21540;DHT22;10931;52.164;5.518;2022-10-23T16:14:04;20.10;72.10
21540;DHT22;10931;52.164;5.518;2022-10-23T16:19:59;20.10;72.00
21540;DHT22;10931;52.164;5.518;2022-10-23T16:26:45;20.20;72.10
21540;DHT22;10931;52.164;5.518;2022-10-23T16:32:17;20.20;72.00
21540;DHT22;10931;52.164;5.518;2022-10-23T16:34:47;20.20;72.00
21540;DHT22;10931;52.164;5.518;2022-10-23T16:37:26;20.20;72.00
21540;DHT22;10931;52.164;5.518;2022-10-23T16:40:23;20.20;72.00
21540;DHT22;10931;52.164;5.518;2022-10-23T16:43:22;20.20;71.90
21540;DHT22;10931;52.164;5.518;2022-10-23T16:46:18;20.20;71.80
21540;DHT22;10931;52.164;5.518;2022-10-23T16:48:46;20.20;71.80
21540;DHT22;10931;52.164;5.518;2022-10-23T16:51:18;20.20;71.80
21540;DHT22;10931;52.164;5.518;2022-10-23T17:00:53;20.20;71.80
21540;DHT22;10931;52.164;5.518;2022-10-23T17:03:42;20.20;71.70
21540;DHT22;10931;52.164;5.518;2022-10-23T17:06:29;20.20;71.70
21540;DHT22;10931;52.164;5.518;2022-10-23T17:09:15;20.20;71.70
21540;DHT22;10931;52.164;5.518;2022-10-23T17:12:13;20.20;71.70
21540;DHT22;10931;52.164;5.518;2022-10-23T17:14:45;20.20;71.70
21540;DHT22;10931;52.164;5.518;2022-10-23T17:17:13;20.30;71.70
21540;DHT22;10931;52.164;5.518;2022-10-23T17:19:59;20.20;71.60
21540;DHT22;10931;52.164;5.518;2022-10-23T17:22:24;20.20;71.60
21540;DHT22;10931;52.164;5.518;2022-10-23T17:25:21;20.20;71.60
21540;DHT22;10931;52.164;5.518;2022-10-23T17:42:58;20.20;71.50
21540;DHT22;10931;52.164;5.518;2022-10-23T17:45:36;20.20;71.50
21540;DHT22;10931;52.164;5.518;2022-10-23T17:48:18;20.20;71.50
21540;DHT22;10931;52.164;5.518;2022-10-23T17:53:35;20.20;71.50
21540;DHT22;10931;52.164;5.518;2022-10-23T17:56:29;20.20;71.50
21540;DHT22;10931;52.164;5.518;2022-10-23T17:59:34;20.20;71.50
21540;DHT22;10931;52.164;5.518;2022-10-23T18:02:32;20.20;71.50
21540;DHT22;10931;52.164;5.518;2022-10-23T18:05:03;20.20;71.50
21540;DHT22;10931;52.164;5.518;2022-10-23T18:07:57;20.20;71.50
21540;DHT22;10931;52.164;5.518;2022-10-23T18:13:50;20.20;71.50
21540;DHT22;10931;52.164;5.518;2022-10-23T18:19:40;20.20;71.50
21540;DHT22;10931;52.164;5.518;2022-10-23T18:22:12;20.20;71.50
21540;DHT22;10931;52.164;5.518;2022-10-23T18:28:14;20.20;72.00
21540;DHT22;10931;52.164;5.518;2022-10-23T18:33:40;20.20;71.40
21540;DHT22;10931;52.164;5.518;2022-10-23T18:38:37;20.20;71.50
21540;DHT22;10931;52.164;5.518;2022-10-23T18:41:14;20.20;71.50
21540;DHT22;10931;52.164;5.518;2022-10-23T19:06:10;20.20;71.70
21540;DHT22;10931;52.164;5.518;2022-10-23T19:09:10;20.20;71.70
21540;DHT22;10931;52.164;5.518;2022-10-23T19:12:03;20.20;71.80
21540;DHT22;10931;52.164;5.518;2022-10-23T19:20:35;20.20;71.70
21540;DHT22;10931;52.164;5.518;2022-10-23T19:25:55;20.10;71.70
21540;DHT22;10931;52.164;5.518;2022-10-23T19:28:54;20.20;71.70
21540;DHT22;10931;52.164;5.518;2022-10-23T19:34:55;20.20;71.70
21540;DHT22;10931;52.164;5.518;2022-10-23T19:37:26;20.20;71.70
21540;DHT22;10931;52.164;5.518;2022-10-23T19:40:32;20.20;71.70
21540;DHT22;10931;52.164;5.518;2022-10-23T19:53:36;20.20;71.80
21540;DHT22;10931;52.164;5.518;2022-10-23T19:56:14;20.20;71.80
21540;DHT22;10931;52.164;5.518;2022-10-23T20:01:57;20.20;71.80
21540;DHT22;10931;52.164;5.518;2022-10-23T20:04:53;20.10;71.70
21540;DHT22;10931;52.164;5.518;2022-10-23T20:07:27;20.20;71.80
21540;DHT22;10931;52.164;5.518;2022-10-23T20:10:15;20.20;71.80
21540;DHT22;10931;52.164;5.518;2022-10-23T20:12:45;20.20;71.80
21540;DHT22;10931;52.164;5.518;2022-10-23T20:15:36;20.20;71.80
21540;DHT22;10931;52.164;5.518;2022-10-23T20:18:13;20.20;71.80
21540;DHT22;10931;52.164;5.518;2022-10-23T20:20:55;20.20;71.80
21540;DHT22;10931;52.164;5.518;2022-10-23T20:23:24;20.10;71.80
21540;DHT22;10931;52.164;5.518;2022-10-23T20:25:51;20.10;71.80
21540;DHT22;10931;52.164;5.518;2022-10-23T20:28:19;20.10;71.80
21540;DHT22;10931;52.164;5.518;2022-10-23T20:31:26;20.10;71.80
21540;DHT22;10931;52.164;5.518;2022-10-23T20:52:11;20.10;71.80
21540;DHT22;10931;52.164;5.518;2022-10-23T20:54:38;20.10;71.80
21540;DHT22;10931;52.164;5.518;2022-10-23T21:00:55;20.10;71.80
21540;DHT22;10931;52.164;5.518;2022-10-23T21:03:51;20.10;71.80
21540;DHT22;10931;52.164;5.518;2022-10-23T21:06:28;20.10;71.80
21540;DHT22;10931;52.164;5.518;2022-10-23T21:09:11;20.10;71.80
21540;DHT22;10931;52.164;5.518;2022-10-23T21:11:48;20.10;71.80
21540;DHT22;10931;52.164;5.518;2022-10-23T21:14:31;20.10;71.80
21540;DHT22;10931;52.164;5.518;2022-10-23T21:17:30;20.10;71.80
21540;DHT22;10931;52.164;5.518;2022-10-23T21:20:43;20.10;71.80
21540;DHT22;10931;52.164;5.518;2022-10-23T23:12:34;20.00;71.70
21540;DHT22;10931;52.164;5.518;2022-10-23T23:15:05;20.00;71.70
21540;DHT22;10931;52.164;5.518;2022-10-23T23:38:26;19.90;71.60
21540;DHT22;10931;52.164;5.518;2022-10-23T23:40:56;19.90;71.60
21540;DHT22;10931;52.164;5.518;2022-10-23T23:46:40;19.90;71.50
21540;DHT22;10931;52.164;5.518;2022-10-23T23:49:21;19.90;71.50
21540;DHT22;10931;52.164;5.518;2022-10-23T23:51:55;19.90;71.50
21540;DHT22;10931;52.164;5.518;2022-10-23T23:54:56;19.90;71.50
21540;DHT22;10931;52.164;5.518;2022-10-23T23:58:06;19.90;71.50
